Time;durP1;ratioP1;P1;durP2;ratioP2;P2;SDS_P1;SDS_P2;PMS_P1;PMS_P2;Temp;Humidity;BMP_temperature;BMP_pressure;BME280_temperature;BME280_humidity;BME280_pressure;Samples;Min_cycle;Max_cycle;Signal;HPM_P1;HPM_P2
2021/09/17 00:02:23;;;;;;;17.33;10.30;;;12.80;99.90;;;;;;5051047;28;20084;-76
2021/09/17 00:04:52;;;;;;;16.52;10.23;;;12.80;99.90;;;;;;5050634;28;20136;-76
2021/09/17 00:07:19;;;;;;;16.55;10.35;;;12.80;99.90;;;;;;5049282;28;20096;-77
2021/09/17 00:09:49;;;;;;;18.35;10.90;;;12.70;99.90;;;;;;5043787;28;20109;-76
2021/09/17 00:12:16;;;;;;;16.95;10.50;;;12.70;99.90;;;;;;5043283;28;20052;-75
2021/09/17 00:14:43;;;;;;;18.25;10.48;;;12.70;99.90;;;;;;5042935;28;20139;-76
2021/09/17 00:17:10;;;;;;;18.30;10.68;;;12.80;99.90;;;;;;5041652;28;20051;-76
2021/09/17 00:19:38;;;;;;;22.52;9.85;;;12.70;99.90;;;;;;5047706;28;20080;-76
2021/09/17 00:22:36;;;;;;;16.35;9.40;;;12.70;99.90;;;;;;5050693;28;20044;-75
2021/09/17 00:25:25;;;;;;;16.02;10.38;;;12.80;99.90;;;;;;5047154;28;20416;-76
2021/09/17 00:27:52;;;;;;;15.02;10.05;;;12.80;99.90;;;;;;5043231;28;20059;-76
2021/09/17 00:30:19;;;;;;;18.55;10.50;;;12.80;99.90;;;;;;5041118;28;20135;-76
2021/09/17 00:32:46;;;;;;;16.48;10.27;;;12.80;99.90;;;;;;5040128;28;20048;-78
2021/09/17 00:35:14;;;;;;;17.42;10.43;;;12.70;99.90;;;;;;5040983;28;20044;-76
2021/09/17 00:37:42;;;;;;;17.85;10.13;;;12.80;99.90;;;;;;5038435;28;20056;-79
2021/09/17 00:40:10;;;;;;;19.27;10.50;;;12.80;99.90;;;;;;5038599;28;20127;-77
2021/09/17 00:42:39;;;;;;;17.95;10.68;;;12.80;99.90;;;;;;5036650;28;20163;-76
2021/09/17 00:45:08;;;;;;;15.82;9.68;;;12.70;99.90;;;;;;5037712;28;20058;-77
2021/09/17 00:47:36;;;;;;;17.33;10.30;;;12.70;99.90;;;;;;5037990;28;20075;-77
2021/09/17 00:50:04;;;;;;;18.10;10.90;;;12.70;99.90;;;;;;5038667;28;20754;-76
2021/09/17 00:52:31;;;;;;;17.08;9.80;;;12.70;99.90;;;;;;5040101;28;20056;-77
2021/09/17 00:55:00;;;;;;;16.98;9.82;;;12.70;99.90;;;;;;5036779;28;20110;-79
2021/09/17 00:57:27;;;;;;;17.67;11.05;;;12.70;99.90;;;;;;5039655;28;20132;-77
2021/09/17 00:59:54;;;;;;;15.70;10.40;;;12.80;99.90;;;;;;5040905;28;20045;-77
2021/09/17 01:02:21;;;;;;;23.52;10.50;;;12.80;99.90;;;;;;5039471;28;20052;-77
2021/09/17 01:04:48;;;;;;;15.27;10.32;;;12.80;99.90;;;;;;5040661;28;20044;-77
2021/09/17 01:07:15;;;;;;;19.83;10.80;;;12.80;99.90;;;;;;5039983;28;20077;-77
2021/09/17 01:09:42;;;;;;;18.08;10.52;;;12.70;99.90;;;;;;5042062;28;20088;-77
2021/09/17 01:12:12;;;;;;;19.10;10.57;;;12.80;99.90;;;;;;5040692;28;20110;-77
2021/09/17 01:14:39;;;;;;;21.35;10.75;;;12.70;99.90;;;;;;5040628;28;20068;-77
2021/09/17 01:17:06;;;;;;;17.92;10.10;;;12.80;99.90;;;;;;5041052;28;20044;-78
2021/09/17 01:19:35;;;;;;;17.30;10.63;;;12.70;99.90;;;;;;5048913;28;20052;-76
2021/09/17 01:22:05;;;;;;;15.75;10.30;;;12.80;99.90;;;;;;5047055;28;20106;-77
2021/09/17 01:24:32;;;;;;;22.95;10.07;;;12.70;99.90;;;;;;5047839;28;20125;-77
2021/09/17 01:26:59;;;;;;;21.45;10.77;;;12.70;99.90;;;;;;5044772;28;20072;-77
2021/09/17 01:29:27;;;;;;;16.40;10.25;;;12.70;99.90;;;;;;5042873;28;20093;-77
2021/09/17 01:31:54;;;;;;;17.58;10.90;;;12.70;99.90;;;;;;5043455;28;20089;-76
2021/09/17 01:34:23;;;;;;;17.70;10.93;;;12.80;99.90;;;;;;5043990;28;20090;-77
2021/09/17 01:36:51;;;;;;;17.40;10.30;;;12.80;99.90;;;;;;5047332;28;20150;-77
2021/09/17 01:39:21;;;;;;;16.58;10.57;;;12.80;99.90;;;;;;5048360;28;20425;-76
2021/09/17 01:41:49;;;;;;;16.35;10.20;;;12.80;99.90;;;;;;5049409;28;20076;-76
2021/09/17 01:44:17;;;;;;;21.13;11.27;;;12.80;99.90;;;;;;5048726;28;20041;-77
2021/09/17 01:46:44;;;;;;;20.83;11.10;;;12.70;99.90;;;;;;5048360;28;20060;-77
2021/09/17 01:49:11;;;;;;;19.65;10.45;;;12.80;99.90;;;;;;5046560;28;20052;-76
2021/09/17 01:51:38;;;;;;;20.15;10.73;;;12.80;99.90;;;;;;5044913;28;20056;-76
2021/09/17 01:54:06;;;;;;;19.05;10.82;;;12.80;99.90;;;;;;5041263;28;20103;-77
2021/09/17 01:56:35;;;;;;;17.33;11.02;;;12.80;99.90;;;;;;5037917;28;20426;-77
2021/09/17 01:59:03;;;;;;;16.40;10.38;;;12.90;99.90;;;;;;5039742;28;20040;-79
2021/09/17 02:01:30;;;;;;;16.98;10.77;;;12.80;99.90;;;;;;5043868;28;20714;-77
2021/09/17 02:03:57;;;;;;;18.73;10.77;;;12.80;99.90;;;;;;5043237;28;20080;-76
2021/09/17 02:06:26;;;;;;;16.90;10.90;;;12.80;99.90;;;;;;5047472;28;20080;-76
2021/09/17 02:08:55;;;;;;;15.70;9.82;;;12.70;99.90;;;;;;5044203;28;20057;-76
2021/09/17 02:11:22;;;;;;;19.00;10.52;;;12.80;99.90;;;;;;5041781;28;20103;-76
2021/09/17 02:13:51;;;;;;;18.60;11.48;;;12.80;99.90;;;;;;5042011;28;20922;-76
2021/09/17 02:16:18;;;;;;;20.33;11.18;;;12.80;99.90;;;;;;5044552;28;20115;-77
2021/09/17 02:18:45;;;;;;;19.00;11.43;;;12.70;99.90;;;;;;5045080;28;20052;-76
2021/09/17 02:21:18;;;;;;;16.80;10.77;;;12.60;99.90;;;;;;5047160;28;20060;-77
2021/09/17 02:23:45;;;;;;;16.60;10.00;;;12.60;99.90;;;;;;5045889;28;20052;-76
2021/09/17 02:26:12;;;;;;;16.65;10.02;;;12.60;99.90;;;;;;5045415;28;20113;-76
2021/09/17 02:28:39;;;;;;;18.50;11.40;;;12.50;99.90;;;;;;5045824;28;20052;-76
2021/09/17 02:31:07;;;;;;;22.40;10.27;;;12.50;99.90;;;;;;5045828;28;21429;-77
2021/09/17 02:33:34;;;;;;;20.10;11.02;;;12.50;99.90;;;;;;5043571;28;20088;-77
2021/09/17 02:36:01;;;;;;;19.08;10.60;;;12.50;99.90;;;;;;5042443;28;20048;-76
2021/09/17 02:38:28;;;;;;;16.23;10.18;;;12.50;99.90;;;;;;5043278;28;20080;-77
2021/09/17 02:40:55;;;;;;;19.40;11.10;;;12.40;99.90;;;;;;5044776;28;20481;-76
2021/09/17 02:43:22;;;;;;;20.08;10.98;;;12.40;99.90;;;;;;5041404;28;20125;-77
2021/09/17 02:45:49;;;;;;;18.90;11.45;;;12.20;99.90;;;;;;5039002;28;20481;-77
2021/09/17 02:48:18;;;;;;;19.88;11.13;;;12.20;99.90;;;;;;5039109;28;20087;-76
2021/09/17 02:50:45;;;;;;;27.30;12.18;;;12.20;99.90;;;;;;5038350;28;20140;-76
2021/09/17 02:53:12;;;;;;;19.90;11.73;;;12.20;99.90;;;;;;5039130;28;20044;-76
2021/09/17 02:55:39;;;;;;;20.65;11.90;;;12.20;99.90;;;;;;5037540;28;21017;-76
2021/09/17 02:58:06;;;;;;;21.92;12.15;;;12.20;99.90;;;;;;5038826;28;21001;-77
2021/09/17 03:00:34;;;;;;;21.92;12.32;;;12.10;99.90;;;;;;5037469;28;20048;-76
2021/09/17 03:03:01;;;;;;;23.35;11.63;;;12.00;99.90;;;;;;5037380;28;20052;-77
2021/09/17 03:05:29;;;;;;;23.48;12.20;;;11.90;99.90;;;;;;5040654;28;20121;-77
2021/09/17 03:07:56;;;;;;;23.98;13.48;;;11.90;99.90;;;;;;5040974;28;20135;-78
2021/09/17 03:10:23;;;;;;;25.70;12.80;;;11.80;99.90;;;;;;5043648;28;20041;-78
2021/09/17 03:12:50;;;;;;;24.55;13.23;;;11.80;99.90;;;;;;5042585;28;20500;-77
2021/09/17 03:15:17;;;;;;;26.50;13.05;;;11.80;99.90;;;;;;5039939;28;20403;-79
2021/09/17 03:17:44;;;;;;;23.10;12.55;;;11.70;99.90;;;;;;5043339;28;20114;-76
2021/09/17 03:20:13;;;;;;;24.73;13.30;;;11.60;99.90;;;;;;5041881;28;21160;-76
2021/09/17 03:22:41;;;;;;;24.83;12.95;;;11.60;99.90;;;;;;5040315;28;20045;-76
2021/09/17 03:25:09;;;;;;;24.90;12.15;;;11.60;99.90;;;;;;5041462;28;20052;-79
2021/09/17 03:27:37;;;;;;;26.63;12.77;;;11.60;99.90;;;;;;5041410;28;20090;-77
2021/09/17 03:30:04;;;;;;;22.77;12.35;;;11.50;99.90;;;;;;5041934;28;20129;-77
2021/09/17 03:32:31;;;;;;;27.25;12.85;;;11.50;99.90;;;;;;5042738;28;20044;-76
2021/09/17 03:34:59;;;;;;;36.90;12.90;;;11.50;99.90;;;;;;5040883;28;20072;-78
2021/09/17 03:37:26;;;;;;;24.08;13.23;;;11.50;99.90;;;;;;5042846;28;20462;-77
2021/09/17 03:39:54;;;;;;;22.08;12.68;;;11.40;99.90;;;;;;5041168;28;20060;-79
2021/09/17 03:42:21;;;;;;;28.80;12.95;;;11.40;99.90;;;;;;5041026;28;20119;-79
2021/09/17 03:44:48;;;;;;;26.45;12.40;;;11.40;99.90;;;;;;5040707;28;20402;-77
2021/09/17 03:47:15;;;;;;;25.45;11.95;;;11.30;99.90;;;;;;5041235;28;20048;-76
2021/09/17 03:49:42;;;;;;;23.13;12.45;;;11.30;99.90;;;;;;5041967;28;20455;-77
2021/09/17 03:52:09;;;;;;;22.13;11.65;;;11.40;99.90;;;;;;5041408;28;20441;-76
2021/09/17 03:54:36;;;;;;;23.13;11.65;;;11.40;99.90;;;;;;5042703;28;20045;-80
2021/09/17 03:57:05;;;;;;;19.15;10.95;;;11.50;99.90;;;;;;5040255;28;20080;-77
2021/09/17 03:59:32;;;;;;;20.42;11.52;;;11.50;99.90;;;;;;5041044;28;20512;-78
2021/09/17 04:02:00;;;;;;;22.75;11.65;;;11.70;99.90;;;;;;5042086;28;20098;-78
2021/09/17 04:04:27;;;;;;;21.02;12.30;;;11.70;99.90;;;;;;5041800;28;20102;-77
2021/09/17 04:06:54;;;;;;;20.52;11.63;;;11.80;99.90;;;;;;5040656;28;20151;-78
2021/09/17 04:09:21;;;;;;;18.92;10.60;;;11.80;99.90;;;;;;5041786;28;20142;-78
2021/09/17 04:11:48;;;;;;;21.35;11.60;;;11.90;99.90;;;;;;5040899;28;20094;-79
2021/09/17 04:14:17;;;;;;;18.88;10.90;;;12.00;99.90;;;;;;5039541;28;20040;-79
2021/09/17 04:16:44;;;;;;;19.73;11.02;;;12.00;99.90;;;;;;5040426;28;20084;-78
2021/09/17 04:19:11;;;;;;;18.08;10.73;;;12.00;99.90;;;;;;5041013;28;20079;-77
2021/09/17 04:21:38;;;;;;;21.00;11.65;;;12.10;99.90;;;;;;5041363;28;20080;-79
2021/09/17 04:24:05;;;;;;;19.15;10.63;;;12.10;99.90;;;;;;5040690;28;20088;-77
2021/09/17 04:26:32;;;;;;;20.45;10.93;;;12.20;99.90;;;;;;5040200;28;20044;-79
2021/09/17 04:28:59;;;;;;;20.05;11.60;;;12.20;99.90;;;;;;5041646;28;20113;-78
2021/09/17 04:31:28;;;;;;;22.55;12.27;;;12.30;99.90;;;;;;5042101;28;20053;-77
2021/09/17 04:33:55;;;;;;;18.92;11.73;;;12.30;99.90;;;;;;5039790;28;20099;-78
2021/09/17 04:36:22;;;;;;;32.17;14.73;;;12.30;99.90;;;;;;5040355;28;20558;-78
2021/09/17 04:38:49;;;;;;;38.90;15.80;;;12.40;99.90;;;;;;5039612;28;20052;-76
2021/09/17 04:41:16;;;;;;;33.80;15.18;;;12.30;99.90;;;;;;5039489;28;20133;-78
2021/09/17 04:43:43;;;;;;;30.35;14.07;;;12.40;99.90;;;;;;5039376;28;20056;-76
2021/09/17 04:46:10;;;;;;;27.38;13.23;;;12.40;99.90;;;;;;5036036;28;20045;-75
2021/09/17 04:48:38;;;;;;;29.80;14.52;;;12.50;99.90;;;;;;5039412;28;20114;-77
2021/09/17 04:51:05;;;;;;;37.35;16.23;;;12.50;99.90;;;;;;5038176;28;20052;-77
2021/09/17 04:53:32;;;;;;;53.65;17.80;;;12.50;99.90;;;;;;5038766;28;20111;-76
2021/09/17 04:55:59;;;;;;;76.75;19.83;;;12.50;99.90;;;;;;5036969;28;20045;-76
2021/09/17 04:58:26;;;;;;;70.97;18.73;;;12.50;99.90;;;;;;5037736;28;20083;-79
2021/09/17 05:00:53;;;;;;;54.85;20.58;;;12.50;99.90;;;;;;5038651;28;20497;-75
2021/09/17 05:03:20;;;;;;;48.92;19.02;;;12.50;99.90;;;;;;5035976;28;20045;-76
2021/09/17 05:05:49;;;;;;;49.35;19.52;;;12.50;99.90;;;;;;5036301;28;20427;-76
2021/09/17 05:08:16;;;;;;;60.65;21.13;;;12.50;99.90;;;;;;5036210;28;20074;-76
2021/09/17 05:10:43;;;;;;;68.53;24.02;;;12.50;99.90;;;;;;5035183;28;20053;-75
2021/09/17 05:13:10;;;;;;;61.67;23.55;;;12.40;99.90;;;;;;5037186;28;20702;-80
2021/09/17 05:15:37;;;;;;;67.13;24.27;;;12.40;99.90;;;;;;5041287;28;20076;-75
2021/09/17 05:18:04;;;;;;;63.67;24.25;;;12.40;99.90;;;;;;5042650;28;20056;-79
2021/09/17 05:20:31;;;;;;;59.17;25.17;;;12.50;99.90;;;;;;5040645;28;20049;-76
2021/09/17 05:22:59;;;;;;;51.70;23.30;;;12.50;99.90;;;;;;5041972;28;20491;-77
2021/09/17 05:25:27;;;;;;;58.50;24.05;;;12.50;99.90;;;;;;5042474;28;20582;-78
2021/09/17 05:27:54;;;;;;;51.17;24.10;;;12.50;99.90;;;;;;5040510;28;20052;-79
2021/09/17 05:30:21;;;;;;;55.88;26.55;;;12.60;99.90;;;;;;5043021;28;20090;-77
2021/09/17 05:32:48;;;;;;;58.42;27.05;;;12.60;99.90;;;;;;5043229;28;20044;-79
2021/09/17 05:35:15;;;;;;;63.55;27.95;;;12.60;99.90;;;;;;5040497;28;20048;-79
2021/09/17 05:37:42;;;;;;;66.03;28.90;;;12.60;99.90;;;;;;5042414;28;20129;-79
2021/09/17 05:40:11;;;;;;;57.38;28.20;;;12.60;99.90;;;;;;5041136;28;20505;-76
2021/09/17 05:42:39;;;;;;;61.50;29.17;;;12.60;99.90;;;;;;5039757;28;20053;-76
2021/09/17 05:45:06;;;;;;;74.50;28.90;;;12.60;99.90;;;;;;5027329;28;20079;-79
2021/09/17 05:47:34;;;;;;;68.18;29.60;;;12.60;99.90;;;;;;5024669;28;20105;-79
2021/09/17 05:50:00;;;;;;;66.47;28.73;;;12.60;99.90;;;;;;5035090;28;20106;-77
2021/09/17 05:52:27;;;;;;;61.38;27.75;;;12.70;99.90;;;;;;5036087;28;20137;-79
2021/09/17 05:54:54;;;;;;;60.95;27.70;;;12.70;99.90;;;;;;5036792;28;20080;-77
2021/09/17 05:57:23;;;;;;;53.88;26.48;;;12.70;99.90;;;;;;5035518;28;20121;-76
2021/09/17 05:59:50;;;;;;;51.55;25.83;;;12.70;99.90;;;;;;5042857;28;20122;-78
2021/09/17 06:02:17;;;;;;;51.55;26.60;;;12.70;99.90;;;;;;5041389;28;20125;-78
2021/09/17 06:04:44;;;;;;;49.47;25.98;;;12.80;99.90;;;;;;5042873;28;20106;-79
2021/09/17 06:07:11;;;;;;;49.55;26.45;;;12.80;99.90;;;;;;5040913;28;20797;-76
2021/09/17 06:09:38;;;;;;;52.00;26.13;;;12.90;99.90;;;;;;5040570;28;20139;-77
2021/09/17 06:12:06;;;;;;;48.17;24.02;;;12.90;99.90;;;;;;5041586;28;20076;-75
2021/09/17 06:14:35;;;;;;;44.00;25.25;;;13.00;99.90;;;;;;5043143;28;20466;-79
2021/09/17 06:17:02;;;;;;;41.65;23.23;;;13.00;99.90;;;;;;5041752;28;20049;-76
2021/09/17 06:19:29;;;;;;;44.50;24.20;;;13.00;99.90;;;;;;5041427;28;20076;-75
2021/09/17 06:21:56;;;;;;;44.33;24.63;;;13.00;99.90;;;;;;5043382;28;20067;-79
2021/09/17 06:24:23;;;;;;;47.63;26.30;;;13.00;99.90;;;;;;5042635;28;20583;-79
2021/09/17 06:26:50;;;;;;;49.42;28.02;;;13.00;99.90;;;;;;5041033;28;20154;-79
2021/09/17 06:29:17;;;;;;;47.30;25.55;;;13.10;99.90;;;;;;5041520;28;20484;-76
2021/09/17 06:31:46;;;;;;;50.20;27.20;;;13.10;99.90;;;;;;5041845;28;20063;-75
2021/09/17 06:34:13;;;;;;;58.15;30.63;;;13.10;99.90;;;;;;5041337;28;20416;-79
2021/09/17 06:36:40;;;;;;;56.28;29.48;;;13.20;99.90;;;;;;5040716;28;20098;-75
2021/09/17 06:39:10;;;;;;;50.70;29.27;;;13.20;99.90;;;;;;5041046;28;20137;-75
2021/09/17 06:41:37;;;;;;;55.28;28.92;;;13.20;99.90;;;;;;5042541;28;20531;-76
2021/09/17 06:44:04;;;;;;;52.20;28.98;;;13.30;99.90;;;;;;5044806;28;20102;-76
2021/09/17 06:46:31;;;;;;;52.78;28.25;;;13.40;99.90;;;;;;5042036;28;20592;-78
2021/09/17 06:48:59;;;;;;;48.72;27.02;;;13.30;99.90;;;;;;5043935;28;20084;-76
2021/09/17 06:51:26;;;;;;;48.30;26.00;;;13.30;99.90;;;;;;5042356;28;20048;-75
2021/09/17 06:53:53;;;;;;;48.58;27.40;;;13.40;99.90;;;;;;5043571;28;20095;-78
2021/09/17 06:56:20;;;;;;;51.30;27.52;;;13.30;99.90;;;;;;5041414;28;20056;-78
2021/09/17 06:58:47;;;;;;;49.75;26.38;;;13.40;99.90;;;;;;5042667;28;20053;-75
2021/09/17 07:01:14;;;;;;;39.60;24.45;;;13.40;99.90;;;;;;5043029;28;20106;-76
2021/09/17 07:03:41;;;;;;;42.88;26.10;;;13.60;99.90;;;;;;5041731;28;20056;-76
2021/09/17 07:06:10;;;;;;;40.70;25.15;;;13.80;99.90;;;;;;5043131;28;20076;-78
2021/09/17 07:08:37;;;;;;;37.28;25.20;;;13.90;99.90;;;;;;5042596;28;20497;-75
2021/09/17 07:11:04;;;;;;;40.33;25.10;;;13.90;99.90;;;;;;5043848;28;20113;-77
2021/09/17 07:13:31;;;;;;;34.95;23.60;;;13.90;99.90;;;;;;5043921;28;20072;-75
2021/09/17 07:15:58;;;;;;;35.28;22.90;;;14.00;99.90;;;;;;5042719;28;20056;-80
2021/09/17 07:18:25;;;;;;;37.05;21.42;;;14.10;99.90;;;;;;5042247;28;20107;-75
2021/09/17 07:20:51;;;;;;;32.53;23.02;;;14.20;99.90;;;;;;5043138;28;20098;-76
2021/09/17 07:23:20;;;;;;;32.90;22.10;;;14.00;99.90;;;;;;5043130;28;20049;-76
2021/09/17 07:25:47;;;;;;;31.45;20.77;;;14.20;99.90;;;;;;5042810;28;20048;-75
2021/09/17 07:28:14;;;;;;;33.17;21.42;;;14.30;99.90;;;;;;5042877;28;20146;-76
2021/09/17 07:30:41;;;;;;;32.22;20.95;;;14.50;99.90;;;;;;5043015;28;20514;-76
2021/09/17 07:33:08;;;;;;;34.00;23.00;;;14.60;99.90;;;;;;5041749;28;20088;-75
2021/09/17 07:35:35;;;;;;;29.77;21.85;;;15.10;99.90;;;;;;5043335;28;20041;-78
2021/09/17 07:38:02;;;;;;;29.17;19.77;;;15.70;99.90;;;;;;5041338;28;20076;-76
2021/09/17 07:40:31;;;;;;;30.00;20.17;;;15.70;99.90;;;;;;5048426;28;20260;-75
2021/09/17 07:42:58;;;;;;;26.83;18.20;;;16.00;99.90;;;;;;5046209;28;20083;-77
2021/09/17 07:45:26;;;;;;;22.58;16.13;;;16.20;99.90;;;;;;5039750;28;20072;-75
2021/09/17 07:47:54;;;;;;;25.75;17.90;;;16.50;99.90;;;;;;5042346;28;20049;-75
2021/09/17 07:50:21;;;;;;;28.25;18.35;;;16.10;99.90;;;;;;5039950;28;20044;-78
2021/09/17 07:52:48;;;;;;;24.00;17.48;;;16.50;99.90;;;;;;5044857;28;20094;-78
2021/09/17 07:55:15;;;;;;;23.52;17.60;;;16.70;99.90;;;;;;5042226;28;20068;-76
2021/09/17 07:57:44;;;;;;;22.35;16.23;;;17.00;99.90;;;;;;5045342;28;20630;-75
2021/09/17 08:00:13;;;;;;;21.40;15.02;;;17.30;99.90;;;;;;5043909;28;20148;-73
2021/09/17 08:02:40;;;;;;;23.17;16.88;;;17.20;99.90;;;;;;5047248;28;20080;-72
2021/09/17 08:05:08;;;;;;;19.23;14.35;;;16.90;99.90;;;;;;5047188;28;20131;-74
2021/09/17 08:07:35;;;;;;;18.63;13.48;;;16.90;99.90;;;;;;5047112;28;20447;-73
2021/09/17 08:10:02;;;;;;;19.13;13.88;;;16.60;99.90;;;;;;5048293;28;20048;-72
2021/09/17 08:12:29;;;;;;;23.50;16.38;;;16.60;99.90;;;;;;5047593;28;20102;-73
2021/09/17 08:14:57;;;;;;;19.42;13.65;;;16.60;99.90;;;;;;5050063;28;20048;-74
2021/09/17 08:17:24;;;;;;;14.85;10.98;;;17.30;99.90;;;;;;5049689;28;20048;-74
2021/09/17 08:19:51;;;;;;;14.10;9.80;;;18.00;99.90;;;;;;5047140;28;20103;-76
2021/09/17 08:22:18;;;;;;;13.68;9.55;;;17.60;99.90;;;;;;5046145;28;20057;-73
2021/09/17 08:24:45;;;;;;;12.38;8.80;;;17.20;99.90;;;;;;5049345;28;20044;-73
2021/09/17 08:27:12;;;;;;;10.80;8.25;;;17.50;99.90;;;;;;5049094;28;20231;-72
2021/09/17 08:29:39;;;;;;;12.25;7.38;;;19.00;99.90;;;;;;5047965;28;20099;-74
2021/09/17 08:32:08;;;;;;;14.25;8.90;;;18.80;99.90;;;;;;5047702;28;20467;-74
2021/09/17 08:34:35;;;;;;;9.10;6.63;;;18.60;99.90;;;;;;5046957;28;20060;-76
2021/09/17 08:37:03;;;;;;;9.48;7.07;;;19.20;99.90;;;;;;5043816;28;20045;-76
2021/09/17 08:39:32;;;;;;;9.18;5.90;;;19.30;99.90;;;;;;5038500;28;20049;-76
2021/09/17 08:42:00;;;;;;;8.13;5.32;;;19.60;99.90;;;;;;5041934;28;20080;-76
2021/09/17 08:44:27;;;;;;;12.35;5.50;;;19.90;99.90;;;;;;5044405;28;20060;-74
2021/09/17 08:46:54;;;;;;;9.02;5.30;;;21.20;99.90;;;;;;5044576;28;20492;-75
2021/09/17 08:49:25;;;;;;;6.80;5.32;;;21.40;99.90;;;;;;5043977;28;20456;-74
2021/09/17 08:51:53;;;;;;;7.38;5.18;;;22.00;99.90;;;;;;5041950;28;20452;-74
2021/09/17 08:54:20;;;;;;;7.80;5.85;;;22.10;99.90;;;;;;5040345;28;20153;-75
2021/09/17 08:56:47;;;;;;;9.43;6.25;;;22.30;99.90;;;;;;5040884;28;20114;-75
2021/09/17 08:59:14;;;;;;;10.40;6.15;;;21.00;99.90;;;;;;5043425;28;20040;-73
2021/09/17 09:01:41;;;;;;;13.70;6.00;;;21.30;99.90;;;;;;5041950;28;20044;-74
2021/09/17 09:04:09;;;;;;;7.70;5.50;;;20.90;99.90;;;;;;5044099;28;20586;-73
2021/09/17 09:06:39;;;;;;;10.75;5.00;;;19.80;99.90;;;;;;5042191;28;20054;-80
2021/09/17 09:09:14;;;;;;;8.88;5.47;;;20.30;99.90;;;;;;5035880;28;20325;-77
2021/09/17 09:11:41;;;;;;;7.97;5.07;;;20.60;99.90;;;;;;5040316;28;20537;-78
2021/09/17 09:14:11;;;;;;;8.98;5.65;;;20.80;99.90;;;;;;5034655;28;20452;-77
2021/09/17 09:16:42;;;;;;;9.63;5.88;;;20.70;99.90;;;;;;5033561;28;20056;-78
2021/09/17 09:19:20;;;;;;;9.43;5.25;;;20.50;99.90;;;;;;5036317;28;20125;-77
2021/09/17 09:21:50;;;;;;;8.55;4.90;;;20.90;99.90;;;;;;5036275;28;20049;-78
2021/09/17 09:24:19;;;;;;;10.27;4.40;;;20.30;99.90;;;;;;5036389;28;21675;-77
2021/09/17 09:26:46;;;;;;;8.27;4.40;;;20.30;99.90;;;;;;5040271;28;20472;-77
2021/09/17 09:29:27;;;;;;;6.00;3.88;;;21.60;99.90;;;;;;5040684;28;20530;-77
2021/09/17 09:31:54;;;;;;;8.25;4.45;;;23.30;99.90;;;;;;5041240;28;20138;-78
2021/09/17 09:34:24;;;;;;;8.40;4.38;;;22.30;99.90;;;;;;5044479;28;20094;-77
2021/09/17 09:37:06;;;;;;;11.70;4.72;;;22.20;99.90;;;;;;5043407;28;20132;-77
2021/09/17 09:39:50;;;;;;;7.22;4.65;;;21.70;99.90;;;;;;5045713;28;20106;-78
2021/09/17 09:42:20;;;;;;;8.00;4.45;;;21.60;99.90;;;;;;5046029;28;20477;-77
2021/09/17 09:45:15;;;;;;;8.38;4.57;;;20.60;99.90;;;;;;5047145;28;20044;-78
2021/09/17 09:47:44;;;;;;;9.25;4.82;;;19.90;99.90;;;;;;5048219;28;20052;-77
2021/09/17 09:50:13;;;;;;;10.93;4.55;;;20.50;99.90;;;;;;5044982;28;20790;-77
2021/09/17 09:52:41;;;;;;;7.00;3.72;;;20.60;99.90;;;;;;5040785;28;20160;-77
2021/09/17 09:55:10;;;;;;;5.60;3.20;;;20.50;99.90;;;;;;5036594;28;20060;-77
2021/09/17 09:57:37;;;;;;;7.03;4.63;;;20.90;99.90;;;;;;5041459;28;20048;-77
2021/09/17 10:00:08;;;;;;;7.50;4.78;;;20.80;99.90;;;;;;5042075;28;20362;-77
2021/09/17 10:02:36;;;;;;;9.52;5.82;;;20.20;99.90;;;;;;5043837;28;20049;-77
2021/09/17 10:05:04;;;;;;;8.23;4.57;;;20.00;99.90;;;;;;5035619;28;20137;-78
2021/09/17 10:07:32;;;;;;;9.38;5.20;;;19.50;99.90;;;;;;5037587;28;20053;-77
2021/09/17 10:10:00;;;;;;;7.05;4.80;;;19.50;99.90;;;;;;5026107;28;20048;-77
2021/09/17 10:12:28;;;;;;;9.95;5.38;;;19.40;99.90;;;;;;5034287;28;20521;-77
2021/09/17 10:14:59;;;;;;;9.90;5.38;;;19.20;99.90;;;;;;5037292;28;20973;-77
2021/09/17 10:17:28;;;;;;;7.38;5.05;;;19.20;99.90;;;;;;5038366;28;20148;-77
2021/09/17 10:19:56;;;;;;;10.48;5.30;;;19.60;99.90;;;;;;5037923;28;20098;-77
2021/09/17 10:22:31;;;;;;;8.55;5.03;;;19.70;99.90;;;;;;5039345;28;20052;-77
2021/09/17 10:25:18;;;;;;;9.05;4.60;;;20.00;99.90;;;;;;5034831;28;20428;-77
2021/09/17 10:27:47;;;;;;;8.05;5.10;;;20.10;99.90;;;;;;5037550;28;20055;-77
2021/09/17 10:30:16;;;;;;;8.07;4.63;;;19.80;99.90;;;;;;5034596;28;20710;-77
2021/09/17 10:32:46;;;;;;;10.57;4.38;;;20.70;99.90;;;;;;5039985;28;20060;-77
2021/09/17 10:35:17;;;;;;;7.05;4.63;;;21.50;99.90;;;;;;5041313;28;20055;-77
2021/09/17 10:38:02;;;;;;;8.23;4.05;;;22.00;99.90;;;;;;5045813;28;20101;-78
2021/09/17 10:40:53;;;;;;;7.45;3.90;;;24.80;99.90;;;;;;5039598;28;20802;-78
2021/09/17 10:43:33;;;;;;;7.63;3.85;;;26.50;99.90;;;;;;5035122;28;20056;-78
2021/09/17 10:46:01;;;;;;;7.25;4.45;;;27.10;99.90;;;;;;5037062;28;20060;-78
2021/09/17 10:48:30;;;;;;;8.15;4.38;;;25.30;99.90;;;;;;5040769;28;20044;-77
2021/09/17 10:51:00;;;;;;;5.95;4.30;;;24.00;99.90;;;;;;5038357;28;20076;-77
2021/09/17 10:54:04;;;;;;;6.50;4.25;;;22.80;99.90;;;;;;5039686;28;20493;-77
2021/09/17 10:57:06;;;;;;;5.70;3.83;;;22.10;99.90;;;;;;5031961;28;20236;-77
2021/09/17 10:59:50;;;;;;;6.75;3.80;;;21.60;99.90;;;;;;5028569;28;20131;-77
2021/09/17 11:02:17;;;;;;;7.05;4.22;;;21.20;99.90;;;;;;5026070;28;20592;-77
2021/09/17 11:04:46;;;;;;;5.97;4.07;;;21.10;99.90;;;;;;5030551;28;20098;-77
2021/09/17 11:07:34;;;;;;;10.32;5.28;;;20.60;99.90;;;;;;5030486;28;20584;-77
2021/09/17 11:10:04;;;;;;;8.88;4.55;;;20.10;99.90;;;;;;5025058;28;20056;-77
2021/09/17 11:12:33;;;;;;;8.82;4.07;;;19.90;99.90;;;;;;5038463;28;20090;-77
2021/09/17 11:15:05;;;;;;;7.93;4.82;;;20.10;99.90;;;;;;5037025;28;20485;-77
2021/09/17 11:17:43;;;;;;;7.63;4.72;;;19.90;99.90;;;;;;5035261;28;20041;-77
2021/09/17 11:20:13;;;;;;;9.98;4.57;;;19.70;99.90;;;;;;5033604;28;20048;-77
2021/09/17 11:22:51;;;;;;;10.10;4.47;;;20.10;99.90;;;;;;5037437;28;20052;-76
2021/09/17 11:25:22;;;;;;;10.25;4.50;;;20.40;99.90;;;;;;5032676;28;20099;-77
2021/09/17 11:27:49;;;;;;;7.85;4.10;;;20.00;99.90;;;;;;5041234;28;20671;-77
2021/09/17 11:30:18;;;;;;;11.23;4.85;;;19.50;99.90;;;;;;5041578;28;20559;-77
2021/09/17 11:32:45;;;;;;;8.13;4.63;;;19.90;99.90;;;;;;5041450;28;20106;-76
2021/09/17 11:35:13;;;;;;;6.95;3.83;;;19.70;99.90;;;;;;5041935;28;20056;-77
2021/09/17 11:37:47;;;;;;;7.20;4.70;;;20.50;99.90;;;;;;5043125;28;20398;-77
2021/09/17 11:40:14;;;;;;;9.07;5.57;;;21.20;99.90;;;;;;5041658;28;20129;-77
2021/09/17 11:42:41;;;;;;;6.53;3.58;;;21.40;99.90;;;;;;5034155;28;20049;-76
2021/09/17 11:45:14;;;;;;;5.32;2.85;;;22.50;99.90;;;;;;5039585;28;20098;-77
2021/09/17 11:47:46;;;;;;;4.70;2.90;;;22.30;99.90;;;;;;5041329;28;20141;-77
2021/09/17 11:50:15;;;;;;;5.78;3.25;;;24.70;99.90;;;;;;5040405;28;20092;-77
2021/09/17 11:52:44;;;;;;;5.70;3.30;;;24.70;99.90;;;;;;5038824;28;20301;-77
2021/09/17 11:55:14;;;;;;;6.35;3.30;;;24.30;99.90;;;;;;5036395;28;20105;-77
2021/09/17 11:57:43;;;;;;;5.50;3.25;;;22.90;99.90;;;;;;5038741;28;20064;-77
2021/09/17 12:00:15;;;;;;;5.30;2.95;;;23.20;99.90;;;;;;5040161;28;20098;-77
2021/09/17 12:02:44;;;;;;;5.93;3.75;;;23.80;99.90;;;;;;5040558;28;20098;-77
2021/09/17 12:05:16;;;;;;;5.55;2.90;;;23.40;99.90;;;;;;5037510;28;20048;-77
2021/09/17 12:07:44;;;;;;;6.68;3.10;;;23.00;99.90;;;;;;5035866;28;20080;-77
2021/09/17 12:10:13;;;;;;;6.65;3.13;;;23.60;99.90;;;;;;5037511;28;20052;-77
2021/09/17 12:12:43;;;;;;;5.97;3.33;;;24.20;99.90;;;;;;5038373;28;20160;-77
2021/09/17 12:15:12;;;;;;;6.63;2.72;;;23.80;99.90;;;;;;5039078;28;20606;-77
2021/09/17 12:17:57;;;;;;;5.38;2.90;;;23.20;99.90;;;;;;5039320;28;20079;-77
2021/09/17 12:20:40;;;;;;;4.90;3.05;;;22.60;99.90;;;;;;5044167;28;20036;-77
2021/09/17 12:23:08;;;;;;;6.93;3.13;;;23.00;99.90;;;;;;5042882;28;20118;-78
2021/09/17 12:25:35;;;;;;;7.75;3.22;;;22.50;99.90;;;;;;5041644;28;20036;-77
2021/09/17 12:28:04;;;;;;;4.47;2.97;;;22.30;99.90;;;;;;5042516;28;20057;-77
2021/09/17 12:30:33;;;;;;;6.15;3.00;;;22.00;99.90;;;;;;5039556;28;20049;-77
2021/09/17 12:33:10;;;;;;;6.47;3.85;;;21.80;99.90;;;;;;5037865;28;20057;-77
2021/09/17 12:35:39;;;;;;;4.93;2.80;;;21.60;99.90;;;;;;5044805;28;20151;-76
2021/09/17 12:38:07;;;;;;;5.68;2.83;;;20.90;99.90;;;;;;5047235;28;20057;-77
2021/09/17 12:40:37;;;;;;;4.68;3.13;;;20.70;99.90;;;;;;5045297;28;20044;-77
2021/09/17 12:43:06;;;;;;;8.30;3.30;;;20.20;99.90;;;;;;5042193;28;20059;-76